createdAt,value
2018-04-10T00:01:43.500Z,41.30
2018-04-10T00:04:10.187Z,34.30
2018-04-10T00:06:36.887Z,36.87
2018-04-10T00:09:03.587Z,37.13
2018-04-10T00:11:30.359Z,38.23
2018-04-10T00:13:57.038Z,36.93
2018-04-10T00:16:23.732Z,36.73
2018-04-10T00:18:50.447Z,44.87
2018-04-10T00:21:17.124Z,38.67
2018-04-10T00:23:43.823Z,38.43
2018-04-10T00:26:10.514Z,37.47
2018-04-10T00:28:37.219Z,40.63
2018-04-10T00:31:03.898Z,39.30
2018-04-10T00:33:30.574Z,38.83
2018-04-10T00:35:57.278Z,36.97
2018-04-10T00:38:24.043Z,41.30
2018-04-10T00:40:50.739Z,44.10
2018-04-10T00:43:17.420Z,43.17
2018-04-10T00:45:44.118Z,40.27
2018-04-10T00:48:10.810Z,41.97
2018-04-10T00:50:37.514Z,41.40
2018-04-10T00:53:10.026Z,45.43
2018-04-10T00:55:36.746Z,42.87
2018-04-10T00:58:03.495Z,47.73
2018-04-10T01:00:30.172Z,40.83
2018-04-10T01:02:56.891Z,44.37
2018-04-10T01:05:23.572Z,41.90
2018-04-10T01:07:50.326Z,42.40
2018-04-10T01:10:17.011Z,41.33
2018-04-10T01:12:43.718Z,43.57
2018-04-10T01:15:10.443Z,44.70
2018-04-10T01:17:37.123Z,42.63
2018-04-10T01:20:03.834Z,40.93
2018-04-10T01:22:30.524Z,42.03
2018-04-10T01:24:57.218Z,42.13
2018-04-10T01:27:23.921Z,47.40
2018-04-10T01:29:50.610Z,43.13
2018-04-10T01:32:17.286Z,50.10
2018-04-10T01:34:44.037Z,40.40
2018-04-10T01:37:10.703Z,43.57
2018-04-10T01:39:37.383Z,41.93
2018-04-10T01:42:04.090Z,43.10
2018-04-10T01:44:30.772Z,42.10
2018-04-10T01:46:57.466Z,42.13
2018-04-10T01:49:24.164Z,41.03
2018-04-10T01:51:50.866Z,43.23
2018-04-10T01:54:17.650Z,44.63
2018-04-10T01:56:44.347Z,42.67
2018-04-10T01:59:11.027Z,44.20
2018-04-10T02:01:37.729Z,43.40
2018-04-10T02:04:04.446Z,43.67
2018-04-10T02:06:31.214Z,39.07
2018-04-10T02:08:57.912Z,42.20
2018-04-10T02:11:24.597Z,42.63
2018-04-10T02:13:51.290Z,43.87
2018-04-10T02:16:17.970Z,41.07
2018-04-10T02:18:44.662Z,42.83
2018-04-10T02:21:11.330Z,44.00
2018-04-10T02:23:38.017Z,42.30
2018-04-10T02:26:04.704Z,43.20
2018-04-10T02:28:31.371Z,43.60
2018-04-10T02:30:58.038Z,42.30
2018-04-10T02:33:24.733Z,38.70
2018-04-10T02:35:51.413Z,36.57
2018-04-10T02:38:18.121Z,41.50
2018-04-10T02:40:44.800Z,42.47
2018-04-10T02:43:11.494Z,41.57
2018-04-10T02:45:38.158Z,40.70
2018-04-10T02:48:04.867Z,39.73
2018-04-10T02:50:31.526Z,43.00
2018-04-10T02:52:58.233Z,41.50
2018-04-10T02:55:24.900Z,49.60
2018-04-10T02:57:51.570Z,43.87
2018-04-10T03:00:18.251Z,46.20
2018-04-10T03:02:44.934Z,46.83
2018-04-10T03:05:11.633Z,41.57
2018-04-10T03:07:38.305Z,38.63
2018-04-10T03:10:04.981Z,34.57
2018-04-10T03:12:31.673Z,38.27
2018-04-10T03:14:58.368Z,45.73
2018-04-10T03:17:25.067Z,39.77
2018-04-10T03:19:51.754Z,42.90
2018-04-10T03:22:18.440Z,46.77
2018-04-10T03:24:45.170Z,47.10
2018-04-10T03:27:11.858Z,51.40
2018-04-10T03:29:38.580Z,42.83
2018-04-10T03:32:05.254Z,40.20
2018-04-10T03:34:31.933Z,46.37
2018-04-10T03:36:58.682Z,44.60
2018-04-10T03:39:25.387Z,45.83
2018-04-10T03:41:52.067Z,43.00
2018-04-10T03:44:18.736Z,41.87
2018-04-10T03:46:45.450Z,42.43
2018-04-10T03:49:12.108Z,37.03
2018-04-10T03:51:38.820Z,37.60
2018-04-10T03:54:05.511Z,32.20
2018-04-10T03:56:32.300Z,36.10
2018-04-10T03:58:58.975Z,36.27
2018-04-10T04:01:25.666Z,40.37
2018-04-10T04:03:52.378Z,31.43
2018-04-10T04:06:19.083Z,30.37
2018-04-10T04:08:45.778Z,31.30
2018-04-10T04:11:12.463Z,31.60
2018-04-10T04:13:39.151Z,43.67
2018-04-10T04:16:05.924Z,42.17
2018-04-10T04:18:38.538Z,38.23
2018-04-10T04:21:11.134Z,45.10
2018-04-10T04:23:37.844Z,43.10
2018-04-10T04:26:04.556Z,44.40
2018-04-10T04:28:31.206Z,37.60
2018-04-10T04:30:58.854Z,33.43
2018-04-10T04:33:25.547Z,33.80
2018-04-10T04:35:52.235Z,39.97
2018-04-10T04:38:18.990Z,30.80
2018-04-10T04:40:45.744Z,33.63
2018-04-10T04:43:13.109Z,33.63
2018-04-10T04:45:39.811Z,35.00
2018-04-10T04:48:06.524Z,36.73
2018-04-10T04:50:33.214Z,42.20
2018-04-10T04:52:59.927Z,39.13
2018-04-10T04:55:26.614Z,35.40
2018-04-10T04:57:53.311Z,39.03
2018-04-10T05:00:20.139Z,37.40
2018-04-10T05:02:46.815Z,42.07
2018-04-10T05:05:13.523Z,43.07
2018-04-10T05:07:40.263Z,44.80
2018-04-10T05:10:06.955Z,38.03
2018-04-10T05:12:33.654Z,38.50
2018-04-10T05:15:00.342Z,41.20
2018-04-10T05:17:27.067Z,45.60
2018-04-10T05:19:53.783Z,32.93
2018-04-10T05:22:20.476Z,32.93
2018-04-10T05:24:47.158Z,28.70
2018-04-10T05:27:13.849Z,34.10
2018-04-10T05:29:40.761Z,37.37
2018-04-10T05:32:07.454Z,36.57
2018-04-10T05:34:34.159Z,43.00
2018-04-10T05:37:00.834Z,41.60
2018-04-10T05:39:27.538Z,42.70
2018-04-10T05:41:54.214Z,39.13
2018-04-10T05:44:20.932Z,46.53
2018-04-10T05:46:47.622Z,37.93
2018-04-10T05:49:14.310Z,34.60
2018-04-10T05:51:41.014Z,35.20
2018-04-10T05:54:07.730Z,32.53
2018-04-10T05:56:34.433Z,37.50
2018-04-10T05:59:01.116Z,33.83
2018-04-10T06:01:27.866Z,32.80
2018-04-10T06:03:54.569Z,32.00
2018-04-10T06:06:21.263Z,29.20
2018-04-10T06:08:47.974Z,32.30
2018-04-10T06:11:14.690Z,35.63
2018-04-10T06:13:41.394Z,30.80
2018-04-10T06:16:08.074Z,36.57
2018-04-10T06:18:34.780Z,37.00
2018-04-10T06:21:01.583Z,33.40
2018-04-10T06:23:28.284Z,31.43
2018-04-10T06:25:54.971Z,29.23
2018-04-10T06:28:21.668Z,32.50
2018-04-10T06:30:48.355Z,27.83
2018-04-10T06:33:15.044Z,31.80
2018-04-10T06:35:41.751Z,30.40
2018-04-10T06:38:08.422Z,28.47
2018-04-10T06:40:35.126Z,28.80
2018-04-10T06:43:01.811Z,24.73
2018-04-10T06:45:28.551Z,27.50
2018-04-10T06:47:55.259Z,27.87
2018-04-10T06:50:21.962Z,28.53
2018-04-10T06:52:48.653Z,29.50
2018-04-10T06:55:15.349Z,27.43
2018-04-10T06:57:42.053Z,25.23
2018-04-10T07:00:08.733Z,24.80
2018-04-10T07:02:35.462Z,22.73
2018-04-10T07:05:02.157Z,30.97
2018-04-10T07:07:28.855Z,22.53
2018-04-10T07:09:55.562Z,23.40
2018-04-10T07:12:22.244Z,21.27
2018-04-10T07:14:48.954Z,20.20
2018-04-10T07:17:15.751Z,23.63
2018-04-10T07:19:42.451Z,22.93
2018-04-10T07:22:09.315Z,18.53
2018-04-10T07:24:36.027Z,18.50
2018-04-10T07:27:02.738Z,18.53
2018-04-10T07:29:29.450Z,17.23
2018-04-10T07:31:56.141Z,19.43
2018-04-10T07:34:22.825Z,17.63
2018-04-10T07:36:49.527Z,17.43
2018-04-10T07:39:16.212Z,13.57
2018-04-10T07:41:42.935Z,13.57
2018-04-10T07:44:09.626Z,12.17
2018-04-10T07:46:36.303Z,14.07
2018-04-10T07:49:03.003Z,12.63
2018-04-10T07:51:29.733Z,14.37
2018-04-10T07:53:56.464Z,14.67
2018-04-10T07:56:23.160Z,13.27
2018-04-10T07:58:49.855Z,18.47
2018-04-10T08:01:16.539Z,10.80
2018-04-10T08:03:43.223Z,10.30
2018-04-10T08:06:09.919Z,9.93
2018-04-10T08:08:36.615Z,11.13
2018-04-10T08:11:03.322Z,10.90
2018-04-10T08:13:30.019Z,9.63
2018-04-10T08:15:56.704Z,11.10
2018-04-10T08:18:23.393Z,10.50
2018-04-10T08:20:50.088Z,9.43
2018-04-10T08:23:16.770Z,11.17
2018-04-10T08:25:43.498Z,9.67
2018-04-10T08:28:10.173Z,9.03
2018-04-10T08:30:36.875Z,12.00
2018-04-10T08:33:03.546Z,10.70
2018-04-10T08:35:30.248Z,7.43
2018-04-10T08:37:56.965Z,8.90
2018-04-10T08:40:23.599Z,10.20
2018-04-10T08:42:50.366Z,7.67
2018-04-10T08:45:17.056Z,7.47
2018-04-10T08:47:43.762Z,9.50
2018-04-10T08:50:10.532Z,11.73
2018-04-10T08:52:37.236Z,20.87
2018-04-10T08:55:03.915Z,10.43
2018-04-10T08:57:30.606Z,9.77
2018-04-10T08:59:57.291Z,9.70
2018-04-10T09:02:24.031Z,10.50
2018-04-10T09:04:50.740Z,8.57
2018-04-10T09:07:17.437Z,9.23
2018-04-10T09:09:44.117Z,9.67
2018-04-10T09:12:11.012Z,9.50
2018-04-10T09:14:37.711Z,8.40
2018-04-10T09:17:04.387Z,8.93
2018-04-10T09:19:31.070Z,9.77
2018-04-10T09:21:57.855Z,9.20
2018-04-10T09:24:24.556Z,8.47
2018-04-10T09:26:51.421Z,8.40
2018-04-10T09:29:18.084Z,6.80
2018-04-10T09:31:44.815Z,5.67
2018-04-10T09:34:11.528Z,10.83
2018-04-10T09:36:38.230Z,6.03
2018-04-10T09:41:48.836Z,5.97
2018-04-10T09:49:43.527Z,7.30
2018-04-10T09:52:10.210Z,5.30
2018-04-10T09:54:36.990Z,6.53
2018-04-10T09:57:03.797Z,8.77
2018-04-10T09:59:30.495Z,6.00
2018-04-10T10:01:57.168Z,6.57
2018-04-10T10:04:23.875Z,6.73
2018-04-10T10:06:50.580Z,7.37
2018-04-10T10:09:17.334Z,5.27
2018-04-10T10:11:44.073Z,5.13
2018-04-10T10:14:10.751Z,7.13
2018-04-10T10:16:37.441Z,6.73
2018-04-10T10:19:04.131Z,4.73
2018-04-10T10:21:30.818Z,5.80
2018-04-10T10:23:57.525Z,7.50
2018-04-10T10:26:24.236Z,5.90
2018-04-10T10:28:51.095Z,6.20
2018-04-10T10:31:17.773Z,7.40
2018-04-10T10:33:44.480Z,4.83
2018-04-10T10:36:11.166Z,4.60
2018-04-10T10:38:37.832Z,5.20
2018-04-10T10:41:04.530Z,5.10
2018-04-10T10:43:31.195Z,4.83
2018-04-10T10:45:58.018Z,6.00
2018-04-10T10:48:24.702Z,8.57
2018-04-10T10:50:51.407Z,7.97
2018-04-10T10:53:18.112Z,7.77
2018-04-10T10:55:44.828Z,6.90
2018-04-10T10:58:11.506Z,4.77
2018-04-10T11:00:38.181Z,4.63
2018-04-10T11:03:04.878Z,4.63
2018-04-10T11:05:31.546Z,8.40
2018-04-10T11:07:58.259Z,4.63
2018-04-10T11:10:24.946Z,5.93
2018-04-10T11:12:51.640Z,4.07
2018-04-10T11:15:18.319Z,3.77
2018-04-10T11:17:44.990Z,5.73
2018-04-10T11:20:11.693Z,8.73
2018-04-10T11:22:38.515Z,4.60
2018-04-10T11:25:05.196Z,3.77
2018-04-10T11:27:31.887Z,7.47
2018-04-10T11:29:58.644Z,8.03
2018-04-10T11:32:25.319Z,7.10
2018-04-10T11:34:52.001Z,6.20
2018-04-10T11:37:18.696Z,4.73
2018-04-10T11:39:45.506Z,6.70
2018-04-10T11:42:12.204Z,20.73
2018-04-10T11:44:38.902Z,7.13
2018-04-10T11:47:05.639Z,6.10
2018-04-10T11:49:32.322Z,9.80
2018-04-10T11:51:59.028Z,7.13
2018-04-10T11:54:25.717Z,7.63
2018-04-10T11:56:52.395Z,6.00
2018-04-10T11:59:19.103Z,6.13
2018-04-10T12:01:45.774Z,4.87
2018-04-10T12:04:12.520Z,4.67
2018-04-10T12:06:39.221Z,5.20
2018-04-10T12:09:05.915Z,6.87
2018-04-10T12:11:32.615Z,8.87
2018-04-10T12:13:59.415Z,3.23
2018-04-10T12:16:26.118Z,5.57
2018-04-10T12:18:52.807Z,3.60
2018-04-10T12:21:19.527Z,4.57
2018-04-10T12:23:46.175Z,6.97
2018-04-10T12:26:12.896Z,4.80
2018-04-10T12:28:39.563Z,3.50
2018-04-10T12:31:06.279Z,6.00
2018-04-10T12:33:32.971Z,4.20
2018-04-10T12:35:59.691Z,5.13
2018-04-10T12:38:26.370Z,5.73
2018-04-10T12:40:53.055Z,2.97
2018-04-10T12:43:19.779Z,4.00
2018-04-10T12:45:46.450Z,6.20
2018-04-10T12:48:13.169Z,6.30
2018-04-10T12:50:39.927Z,2.83
2018-04-10T12:53:06.653Z,3.73
2018-04-10T12:55:33.321Z,4.30
2018-04-10T12:58:00.015Z,3.60
2018-04-10T13:00:26.748Z,4.47
2018-04-10T13:02:53.414Z,2.97
2018-04-10T13:05:20.086Z,3.33
2018-04-10T13:07:46.802Z,4.90
2018-04-10T13:10:13.546Z,3.70
2018-04-10T13:12:40.240Z,5.33
2018-04-10T13:15:06.927Z,4.77
2018-04-10T13:17:33.626Z,4.47
2018-04-10T13:20:00.340Z,4.83
2018-04-10T13:22:27.024Z,2.63
2018-04-10T13:24:53.723Z,4.83
2018-04-10T13:27:20.419Z,3.27
2018-04-10T13:29:47.128Z,2.97
2018-04-10T13:32:13.811Z,6.00
2018-04-10T13:34:40.515Z,7.50
2018-04-10T13:37:07.222Z,6.43
2018-04-10T13:39:33.911Z,4.43
2018-04-10T13:42:00.599Z,4.27
2018-04-10T13:44:27.310Z,4.70
2018-04-10T13:46:54.022Z,3.23
2018-04-10T13:49:20.707Z,3.57
2018-04-10T13:51:47.468Z,6.77
2018-04-10T13:54:14.155Z,4.63
2018-04-10T13:56:40.844Z,7.73
2018-04-10T13:59:07.528Z,4.07
2018-04-10T14:01:34.260Z,7.17
2018-04-10T14:04:00.940Z,8.40
2018-04-10T14:06:27.616Z,4.80
2018-04-10T14:08:54.312Z,3.33
2018-04-10T14:11:20.994Z,5.77
2018-04-10T14:13:47.714Z,9.27
2018-04-10T14:16:14.401Z,4.50
2018-04-10T14:18:41.206Z,5.70
2018-04-10T14:21:07.912Z,5.60
2018-04-10T14:23:34.587Z,4.07
2018-04-10T14:26:01.298Z,6.50
2018-04-10T14:28:28.003Z,9.67
2018-04-10T14:30:54.680Z,5.40
2018-04-10T14:33:21.494Z,3.70
2018-04-10T14:35:48.336Z,5.33
2018-04-10T14:38:15.091Z,8.70
2018-04-10T14:40:41.771Z,6.70
2018-04-10T14:43:08.479Z,6.40
2018-04-10T14:45:35.218Z,5.60
2018-04-10T14:48:01.934Z,6.03
2018-04-10T14:50:28.641Z,8.23
2018-04-10T14:52:55.331Z,8.73
2018-04-10T14:55:22.024Z,5.47
2018-04-10T14:57:48.787Z,5.57
2018-04-10T15:00:15.497Z,9.70
2018-04-10T15:02:42.172Z,10.47
2018-04-10T15:05:08.894Z,11.00
2018-04-10T15:07:35.600Z,11.33
2018-04-10T15:10:02.333Z,11.13
2018-04-10T15:12:29.024Z,6.50
2018-04-10T15:14:55.690Z,9.13
2018-04-10T15:17:22.407Z,5.70
2018-04-10T15:19:49.091Z,6.27
2018-04-10T15:22:15.793Z,8.00
2018-04-10T15:24:42.485Z,11.10
2018-04-10T15:27:09.163Z,9.27
2018-04-10T15:29:36.082Z,9.13
2018-04-10T15:32:02.771Z,8.63
2018-04-10T15:34:29.461Z,8.70
2018-04-10T15:36:56.167Z,7.33
2018-04-10T15:39:23.005Z,6.87
2018-04-10T15:41:49.707Z,11.03
2018-04-10T15:44:16.434Z,7.53
2018-04-10T15:46:43.157Z,5.60
2018-04-10T15:49:10.071Z,11.40
2018-04-10T15:51:36.759Z,13.23
2018-04-10T15:54:03.647Z,9.93
2018-04-10T15:56:30.326Z,6.07
2018-04-10T15:58:57.068Z,7.70
2018-04-10T16:01:23.810Z,11.67
2018-04-10T16:03:50.546Z,8.67
2018-04-10T16:06:17.299Z,9.63
2018-04-10T16:08:44.005Z,10.13
2018-04-10T16:11:10.788Z,11.67
2018-04-10T16:13:37.515Z,9.63
2018-04-10T16:16:04.199Z,7.97
2018-04-10T16:18:30.927Z,8.70
2018-04-10T16:20:57.638Z,8.53
2018-04-10T16:23:24.329Z,9.10
2018-04-10T16:25:51.031Z,9.90
2018-04-10T16:28:17.863Z,11.97
2018-04-10T16:30:44.568Z,17.97
2018-04-10T16:33:11.272Z,10.00
2018-04-10T16:35:37.969Z,7.90
2018-04-10T16:38:04.701Z,12.10
2018-04-10T16:40:31.391Z,11.33
2018-04-10T16:42:58.079Z,12.10
2018-04-10T16:45:24.775Z,11.77
2018-04-10T16:47:51.515Z,10.67
2018-04-10T16:50:19.846Z,11.37
2018-04-10T16:52:46.510Z,11.00
2018-04-10T16:55:13.245Z,12.87
2018-04-10T16:57:39.976Z,14.57
2018-04-10T17:00:06.948Z,13.43
2018-04-10T17:02:33.670Z,12.10
2018-04-10T17:05:00.463Z,13.17
2018-04-10T17:07:27.187Z,13.23
2018-04-10T17:09:53.943Z,11.57
2018-04-10T17:12:20.637Z,13.90
2018-04-10T17:14:47.337Z,12.17
2018-04-10T17:17:14.043Z,12.33
2018-04-10T17:19:40.772Z,14.67
2018-04-10T17:22:07.485Z,12.50
2018-04-10T17:24:34.216Z,13.13
2018-04-10T17:27:00.912Z,13.60
2018-04-10T17:29:27.758Z,13.37
2018-04-10T17:31:54.496Z,13.87
2018-04-10T17:34:21.278Z,15.33
2018-04-10T17:36:47.996Z,14.50
2018-04-10T17:39:14.687Z,14.57
2018-04-10T17:41:41.430Z,14.90
2018-04-10T17:44:08.119Z,17.30
2018-04-10T17:46:34.848Z,15.33
2018-04-10T17:49:01.564Z,15.57
2018-04-10T17:51:28.290Z,20.83
2018-04-10T17:53:55.053Z,15.07
2018-04-10T17:56:21.748Z,17.30
2018-04-10T17:58:48.473Z,16.00
2018-04-10T18:01:15.215Z,18.43
2018-04-10T18:03:41.923Z,24.50
2018-04-10T18:06:08.645Z,22.13
2018-04-10T18:08:35.434Z,19.73
2018-04-10T18:11:02.180Z,18.77
2018-04-10T18:13:29.010Z,17.37
2018-04-10T18:15:55.705Z,16.20
2018-04-10T18:18:22.445Z,18.67
2018-04-10T18:20:49.153Z,17.57
2018-04-10T18:23:15.845Z,20.33
2018-04-10T18:25:42.630Z,18.30
2018-04-10T18:28:09.313Z,19.87
2018-04-10T18:30:36.016Z,20.40
2018-04-10T18:33:02.767Z,21.63
2018-04-10T18:35:29.492Z,24.37
2018-04-10T18:37:56.254Z,20.50
2018-04-10T18:40:22.955Z,24.23
2018-04-10T18:42:49.683Z,15.37
2018-04-10T18:45:16.388Z,16.57
2018-04-10T18:47:43.092Z,17.97
2018-04-10T18:50:09.818Z,14.70
2018-04-10T18:52:36.529Z,19.57
2018-04-10T18:55:03.252Z,15.80
2018-04-10T18:57:29.956Z,17.97
2018-04-10T18:59:56.694Z,15.67
2018-04-10T19:02:23.393Z,18.13
2018-04-10T19:04:50.121Z,19.00
2018-04-10T19:07:16.854Z,22.30
2018-04-10T19:09:43.583Z,23.73
2018-04-10T19:14:44.219Z,25.80
2018-04-10T19:17:10.962Z,31.90
2018-04-10T19:19:37.640Z,30.77
2018-04-10T19:22:04.368Z,29.47
2018-04-10T19:24:31.051Z,31.50
2018-04-10T19:26:57.796Z,30.70
2018-04-10T19:29:24.609Z,34.37
2018-04-10T19:31:51.311Z,38.43
2018-04-10T19:34:18.039Z,44.17
2018-04-10T19:36:45.622Z,49.50
2018-04-10T19:39:12.334Z,47.00
2018-04-10T19:41:39.054Z,60.13
2018-04-10T19:44:05.780Z,58.47
2018-04-10T19:46:32.469Z,48.90
2018-04-10T19:48:59.206Z,62.90
2018-04-10T19:51:25.933Z,55.47
2018-04-10T19:53:52.625Z,71.57
2018-04-10T19:56:19.356Z,49.17
2018-04-10T19:58:47.035Z,83.47
2018-04-10T20:01:13.754Z,81.50
2018-04-10T20:03:40.599Z,127.80
2018-04-10T20:06:07.441Z,94.87
2018-04-10T20:08:34.234Z,101.33
2018-04-10T20:11:01.020Z,87.27
2018-04-10T20:13:27.983Z,78.97
2018-04-10T20:15:54.727Z,72.80
2018-04-10T20:18:21.547Z,59.67
2018-04-10T20:20:48.247Z,61.13
2018-04-10T20:23:15.047Z,52.03
2018-04-10T20:25:41.785Z,50.20
2018-04-10T20:28:08.503Z,51.33
2018-04-10T20:30:35.211Z,50.40
2018-04-10T20:33:01.988Z,49.40
2018-04-10T20:35:28.698Z,48.33
2018-04-10T20:37:55.434Z,46.30
2018-04-10T20:40:22.117Z,57.33
2018-04-10T20:42:48.817Z,54.70
2018-04-10T20:45:15.665Z,69.03
2018-04-10T20:47:42.403Z,62.90
2018-04-10T20:50:09.127Z,60.87
2018-04-10T20:52:35.840Z,50.60
2018-04-10T20:55:02.560Z,48.03
2018-04-10T20:57:29.416Z,43.70
2018-04-10T20:59:56.140Z,51.37
2018-04-10T21:02:22.834Z,42.43
2018-04-10T21:04:49.528Z,43.03
2018-04-10T21:07:16.479Z,46.13
2018-04-10T21:09:43.148Z,37.40
2018-04-10T21:12:09.863Z,40.50
2018-04-10T21:14:36.573Z,39.70
2018-04-10T21:17:03.380Z,40.47
2018-04-10T21:19:30.077Z,45.40
2018-04-10T21:21:56.808Z,44.77
2018-04-10T21:24:23.511Z,46.13
2018-04-10T21:26:50.235Z,53.37
2018-04-10T21:29:16.937Z,48.43
2018-04-10T21:31:43.638Z,70.47
2018-04-10T21:34:10.340Z,37.70
2018-04-10T21:36:37.047Z,45.20
2018-04-10T21:39:03.769Z,50.23
2018-04-10T21:41:30.508Z,49.43
2018-04-10T21:43:57.274Z,41.87
2018-04-10T21:46:23.964Z,40.83
2018-04-10T21:48:50.654Z,41.67
2018-04-10T21:51:17.354Z,38.10
2018-04-10T21:53:44.135Z,44.37
2018-04-10T21:56:10.845Z,47.43
2018-04-10T21:58:37.648Z,39.07
2018-04-10T22:01:04.357Z,40.33
2018-04-10T22:03:31.118Z,43.67
2018-04-10T22:05:57.840Z,41.13
2018-04-10T22:08:24.522Z,44.70
2018-04-10T22:10:51.232Z,47.20
2018-04-10T22:13:17.926Z,38.63
2018-04-10T22:15:44.627Z,41.53
2018-04-10T22:18:11.400Z,41.33
2018-04-10T22:20:38.090Z,43.50
2018-04-10T22:23:04.981Z,59.00
2018-04-10T22:25:31.690Z,38.53
2018-04-10T22:27:58.494Z,45.27
2018-04-10T22:30:25.213Z,53.50
2018-04-10T22:32:51.860Z,48.33
2018-04-10T22:35:18.556Z,38.33
2018-04-10T22:37:45.507Z,35.70
2018-04-10T22:40:12.194Z,29.57
2018-04-10T22:42:38.938Z,26.83
2018-04-10T22:45:05.632Z,27.93
2018-04-10T22:47:32.329Z,27.17
2018-04-10T22:49:59.143Z,23.87
2018-04-10T22:52:25.856Z,22.87
2018-04-10T22:54:52.582Z,22.27
2018-04-10T22:57:19.327Z,27.27
2018-04-10T22:59:46.027Z,22.53
2018-04-10T23:02:12.747Z,19.87
2018-04-10T23:04:39.440Z,19.10
2018-04-10T23:07:06.132Z,19.20
2018-04-10T23:09:32.852Z,19.50
2018-04-10T23:11:59.632Z,18.47
2018-04-10T23:14:26.335Z,16.70
2018-04-10T23:16:53.247Z,19.67
2018-04-10T23:19:19.931Z,19.50
2018-04-10T23:21:46.759Z,22.60
2018-04-10T23:24:13.443Z,18.60
2018-04-10T23:26:40.159Z,20.70
2018-04-10T23:29:06.847Z,20.23
2018-04-10T23:31:33.571Z,21.37
2018-04-10T23:34:00.248Z,18.27
2018-04-10T23:36:26.947Z,18.20
2018-04-10T23:38:53.639Z,17.43
2018-04-10T23:41:20.347Z,17.63
2018-04-10T23:43:47.039Z,13.57
2018-04-10T23:46:13.724Z,17.20
2018-04-10T23:48:40.450Z,16.73
2018-04-10T23:51:07.133Z,14.57
2018-04-10T23:53:33.839Z,14.47
2018-04-10T23:56:00.520Z,17.07
2018-04-10T23:58:27.215Z,17.57
